sensor_id;sensor_type;location;lat;lon;timestamp;P1;durP1;ratioP1;P2;durP2;ratioP2
2538;SDS011;1280;49.760;9.664;2023-05-10T00:02:11;5.23;;;2.37;;
2538;SDS011;1280;49.760;9.664;2023-05-10T00:04:40;6.40;;;2.80;;
2538;SDS011;1280;49.760;9.664;2023-05-10T00:07:25;4.20;;;2.10;;
2538;SDS011;1280;49.760;9.664;2023-05-10T00:10:16;5.00;;;2.00;;
2538;SDS011;1280;49.760;9.664;2023-05-10T00:12:50;4.70;;;2.20;;
2538;SDS011;1280;49.760;9.664;2023-05-10T00:15:31;4.53;;;2.20;;
2538;SDS011;1280;49.760;9.664;2023-05-10T00:18:04;4.50;;;2.10;;
2538;SDS011;1280;49.760;9.664;2023-05-10T00:20:35;4.47;;;2.37;;
2538;SDS011;1280;49.760;9.664;2023-05-10T00:23:07;5.70;;;2.53;;
2538;SDS011;1280;49.760;9.664;2023-05-10T00:25:46;4.50;;;2.40;;
2538;SDS011;1280;49.760;9.664;2023-05-10T00:28:14;4.47;;;2.53;;
2538;SDS011;1280;49.760;9.664;2023-05-10T00:30:48;4.70;;;1.93;;
2538;SDS011;1280;49.760;9.664;2023-05-10T00:33:20;7.00;;;2.40;;
2538;SDS011;1280;49.760;9.664;2023-05-10T00:36:00;5.63;;;2.20;;
2538;SDS011;1280;49.760;9.664;2023-05-10T00:38:30;4.70;;;2.10;;
2538;SDS011;1280;49.760;9.664;2023-05-10T00:41:05;4.93;;;2.20;;
2538;SDS011;1280;49.760;9.664;2023-05-10T00:43:35;4.63;;;2.23;;
2538;SDS011;1280;49.760;9.664;2023-05-10T00:46:10;4.10;;;2.27;;
2538;SDS011;1280;49.760;9.664;2023-05-10T00:48:46;4.33;;;2.03;;
2538;SDS011;1280;49.760;9.664;2023-05-10T00:51:21;4.47;;;2.20;;
2538;SDS011;1280;49.760;9.664;2023-05-10T00:53:58;4.30;;;1.93;;
2538;SDS011;1280;49.760;9.664;2023-05-10T00:56:39;4.97;;;2.40;;
2538;SDS011;1280;49.760;9.664;2023-05-10T00:59:17;4.73;;;2.30;;
2538;SDS011;1280;49.760;9.664;2023-05-10T01:01:57;4.53;;;2.13;;
2538;SDS011;1280;49.760;9.664;2023-05-10T01:04:29;4.67;;;1.77;;
2538;SDS011;1280;49.760;9.664;2023-05-10T01:07:08;4.20;;;1.80;;
2538;SDS011;1280;49.760;9.664;2023-05-10T01:09:42;3.77;;;1.60;;
2538;SDS011;1280;49.760;9.664;2023-05-10T01:12:23;5.10;;;2.10;;
2538;SDS011;1280;49.760;9.664;2023-05-10T01:14:53;5.50;;;1.93;;
2538;SDS011;1280;49.760;9.664;2023-05-10T01:17:33;4.83;;;1.50;;
2538;SDS011;1280;49.760;9.664;2023-05-10T01:20:08;3.70;;;1.60;;
2538;SDS011;1280;49.760;9.664;2023-05-10T01:22:45;4.67;;;1.60;;
2538;SDS011;1280;49.760;9.664;2023-05-10T01:29:02;3.63;;;1.03;;
2538;SDS011;1280;49.760;9.664;2023-05-10T01:35:03;5.10;;;1.07;;
2538;SDS011;1280;49.760;9.664;2023-05-10T01:37:42;4.10;;;0.80;;
2538;SDS011;1280;49.760;9.664;2023-05-10T01:40:29;3.10;;;1.00;;
2538;SDS011;1280;49.760;9.664;2023-05-10T01:43:08;3.77;;;0.87;;
2538;SDS011;1280;49.760;9.664;2023-05-10T01:45:47;4.13;;;1.47;;
2538;SDS011;1280;49.760;9.664;2023-05-10T01:48:54;3.20;;;1.10;;
2538;SDS011;1280;49.760;9.664;2023-05-10T01:51:29;4.27;;;1.30;;
2538;SDS011;1280;49.760;9.664;2023-05-10T01:54:09;3.73;;;1.27;;
2538;SDS011;1280;49.760;9.664;2023-05-10T01:56:52;3.60;;;1.43;;
2538;SDS011;1280;49.760;9.664;2023-05-10T01:59:34;3.30;;;1.20;;
2538;SDS011;1280;49.760;9.664;2023-05-10T02:02:13;4.27;;;1.10;;
2538;SDS011;1280;49.760;9.664;2023-05-10T02:04:58;4.63;;;1.07;;
2538;SDS011;1280;49.760;9.664;2023-05-10T02:07:38;5.77;;;0.90;;
2538;SDS011;1280;49.760;9.664;2023-05-10T02:10:16;3.80;;;1.20;;
2538;SDS011;1280;49.760;9.664;2023-05-10T02:12:51;5.10;;;1.30;;
2538;SDS011;1280;49.760;9.664;2023-05-10T02:15:22;3.20;;;1.07;;
2538;SDS011;1280;49.760;9.664;2023-05-10T02:17:54;4.07;;;1.10;;
2538;SDS011;1280;49.760;9.664;2023-05-10T02:20:32;3.30;;;1.00;;
2538;SDS011;1280;49.760;9.664;2023-05-10T02:23:05;3.10;;;1.00;;
2538;SDS011;1280;49.760;9.664;2023-05-10T02:25:42;3.00;;;0.90;;
2538;SDS011;1280;49.760;9.664;2023-05-10T02:28:16;4.80;;;1.00;;
2538;SDS011;1280;49.760;9.664;2023-05-10T02:30:54;4.43;;;1.00;;
2538;SDS011;1280;49.760;9.664;2023-05-10T02:33:29;3.20;;;1.00;;
2538;SDS011;1280;49.760;9.664;2023-05-10T02:36:07;3.10;;;1.10;;
2538;SDS011;1280;49.760;9.664;2023-05-10T02:38:40;2.97;;;0.90;;
2538;SDS011;1280;49.760;9.664;2023-05-10T02:41:15;4.57;;;1.10;;
2538;SDS011;1280;49.760;9.664;2023-05-10T02:43:50;4.20;;;1.33;;
2538;SDS011;1280;49.760;9.664;2023-05-10T02:46:33;4.67;;;1.20;;
2538;SDS011;1280;49.760;9.664;2023-05-10T02:49:02;3.30;;;1.10;;
2538;SDS011;1280;49.760;9.664;2023-05-10T02:51:44;3.37;;;1.10;;
2538;SDS011;1280;49.760;9.664;2023-05-10T02:54:21;3.50;;;0.97;;
2538;SDS011;1280;49.760;9.664;2023-05-10T02:57:00;4.83;;;1.37;;
2538;SDS011;1280;49.760;9.664;2023-05-10T02:59:34;3.70;;;1.23;;
2538;SDS011;1280;49.760;9.664;2023-05-10T03:02:07;3.23;;;1.00;;
2538;SDS011;1280;49.760;9.664;2023-05-10T03:04:37;5.57;;;1.07;;
2538;SDS011;1280;49.760;9.664;2023-05-10T03:07:21;4.27;;;1.20;;
2538;SDS011;1280;49.760;9.664;2023-05-10T03:09:51;2.93;;;0.90;;
2538;SDS011;1280;49.760;9.664;2023-05-10T03:12:33;3.10;;;0.97;;
2538;SDS011;1280;49.760;9.664;2023-05-10T03:15:24;3.93;;;1.07;;
2538;SDS011;1280;49.760;9.664;2023-05-10T03:18:06;5.10;;;1.40;;
2538;SDS011;1280;49.760;9.664;2023-05-10T03:20:42;3.50;;;1.40;;
2538;SDS011;1280;49.760;9.664;2023-05-10T03:23:20;3.33;;;1.07;;
2538;SDS011;1280;49.760;9.664;2023-05-10T03:25:57;3.17;;;0.87;;
2538;SDS011;1280;49.760;9.664;2023-05-10T03:28:31;3.40;;;1.20;;
2538;SDS011;1280;49.760;9.664;2023-05-10T03:31:05;3.17;;;0.93;;
2538;SDS011;1280;49.760;9.664;2023-05-10T03:33:45;3.37;;;1.30;;
2538;SDS011;1280;49.760;9.664;2023-05-10T03:36:25;2.97;;;0.90;;
2538;SDS011;1280;49.760;9.664;2023-05-10T03:39:03;4.33;;;1.20;;
2538;SDS011;1280;49.760;9.664;2023-05-10T03:41:37;3.30;;;1.20;;
2538;SDS011;1280;49.760;9.664;2023-05-10T03:44:11;4.00;;;1.60;;
2538;SDS011;1280;49.760;9.664;2023-05-10T03:46:45;3.43;;;1.47;;
2538;SDS011;1280;49.760;9.664;2023-05-10T03:49:18;4.30;;;1.40;;
2538;SDS011;1280;49.760;9.664;2023-05-10T03:51:53;4.63;;;1.40;;
2538;SDS011;1280;49.760;9.664;2023-05-10T03:54:34;4.10;;;1.60;;
2538;SDS011;1280;49.760;9.664;2023-05-10T03:57:14;6.73;;;1.30;;
2538;SDS011;1280;49.760;9.664;2023-05-10T03:59:43;4.50;;;1.27;;
2538;SDS011;1280;49.760;9.664;2023-05-10T04:02:12;5.10;;;1.73;;
2538;SDS011;1280;49.760;9.664;2023-05-10T04:04:45;3.40;;;1.20;;
2538;SDS011;1280;49.760;9.664;2023-05-10T04:07:20;3.53;;;1.27;;
2538;SDS011;1280;49.760;9.664;2023-05-10T04:10:03;4.40;;;1.10;;
2538;SDS011;1280;49.760;9.664;2023-05-10T04:12:43;3.00;;;1.00;;
2538;SDS011;1280;49.760;9.664;2023-05-10T04:15:18;4.07;;;1.40;;
2538;SDS011;1280;49.760;9.664;2023-05-10T04:17:54;3.30;;;1.30;;
2538;SDS011;1280;49.760;9.664;2023-05-10T04:20:34;3.60;;;1.50;;
2538;SDS011;1280;49.760;9.664;2023-05-10T04:23:04;5.30;;;1.37;;
2538;SDS011;1280;49.760;9.664;2023-05-10T04:25:49;3.43;;;1.40;;
2538;SDS011;1280;49.760;9.664;2023-05-10T04:28:20;3.40;;;1.40;;
2538;SDS011;1280;49.760;9.664;2023-05-10T04:30:51;6.37;;;1.47;;
2538;SDS011;1280;49.760;9.664;2023-05-10T04:33:25;6.60;;;1.23;;
2538;SDS011;1280;49.760;9.664;2023-05-10T04:35:56;10.20;;;1.20;;
2538;SDS011;1280;49.760;9.664;2023-05-10T04:38:33;4.00;;;1.27;;
2538;SDS011;1280;49.760;9.664;2023-05-10T04:41:10;3.50;;;1.30;;
2538;SDS011;1280;49.760;9.664;2023-05-10T04:43:46;4.43;;;1.50;;
2538;SDS011;1280;49.760;9.664;2023-05-10T04:46:30;4.17;;;1.30;;
2538;SDS011;1280;49.760;9.664;2023-05-10T04:49:04;3.40;;;1.33;;
2538;SDS011;1280;49.760;9.664;2023-05-10T04:51:39;3.93;;;1.37;;
2538;SDS011;1280;49.760;9.664;2023-05-10T04:54:17;4.80;;;1.47;;
2538;SDS011;1280;49.760;9.664;2023-05-10T04:57:00;3.80;;;1.40;;
2538;SDS011;1280;49.760;9.664;2023-05-10T04:59:35;3.40;;;1.50;;
2538;SDS011;1280;49.760;9.664;2023-05-10T05:02:14;3.40;;;1.50;;
2538;SDS011;1280;49.760;9.664;2023-05-10T05:04:51;4.40;;;1.80;;
2538;SDS011;1280;49.760;9.664;2023-05-10T05:07:21;4.67;;;1.43;;
2538;SDS011;1280;49.760;9.664;2023-05-10T05:09:59;6.40;;;1.63;;
2538;SDS011;1280;49.760;9.664;2023-05-10T05:12:44;5.03;;;1.90;;
2538;SDS011;1280;49.760;9.664;2023-05-10T05:15:13;3.60;;;1.40;;
2538;SDS011;1280;49.760;9.664;2023-05-10T05:17:48;6.90;;;1.60;;
2538;SDS011;1280;49.760;9.664;2023-05-10T05:20:21;4.33;;;1.80;;
2538;SDS011;1280;49.760;9.664;2023-05-10T05:23:00;5.80;;;1.90;;
2538;SDS011;1280;49.760;9.664;2023-05-10T05:25:39;3.77;;;1.80;;
2538;SDS011;1280;49.760;9.664;2023-05-10T05:28:30;4.00;;;1.50;;
2538;SDS011;1280;49.760;9.664;2023-05-10T05:31:07;3.57;;;1.67;;
2538;SDS011;1280;49.760;9.664;2023-05-10T05:33:37;5.77;;;1.90;;
2538;SDS011;1280;49.760;9.664;2023-05-10T05:36:10;3.70;;;1.60;;
2538;SDS011;1280;49.760;9.664;2023-05-10T05:38:45;4.20;;;1.67;;
2538;SDS011;1280;49.760;9.664;2023-05-10T05:41:18;5.27;;;2.03;;
2538;SDS011;1280;49.760;9.664;2023-05-10T05:43:57;4.43;;;1.60;;
2538;SDS011;1280;49.760;9.664;2023-05-10T05:46:28;4.43;;;1.60;;
2538;SDS011;1280;49.760;9.664;2023-05-10T05:49:09;5.23;;;2.13;;
2538;SDS011;1280;49.760;9.664;2023-05-10T05:51:45;4.73;;;1.80;;
2538;SDS011;1280;49.760;9.664;2023-05-10T05:54:19;7.70;;;2.17;;
2538;SDS011;1280;49.760;9.664;2023-05-10T05:56:55;3.77;;;1.77;;
2538;SDS011;1280;49.760;9.664;2023-05-10T05:59:43;4.77;;;1.80;;
2538;SDS011;1280;49.760;9.664;2023-05-10T06:02:18;4.10;;;1.83;;
2538;SDS011;1280;49.760;9.664;2023-05-10T06:04:48;3.70;;;1.73;;
2538;SDS011;1280;49.760;9.664;2023-05-10T06:07:29;5.10;;;2.20;;
2538;SDS011;1280;49.760;9.664;2023-05-10T06:10:11;4.37;;;2.20;;
2538;SDS011;1280;49.760;9.664;2023-05-10T06:12:42;4.97;;;2.10;;
2538;SDS011;1280;49.760;9.664;2023-05-10T06:15:28;5.93;;;2.17;;
2538;SDS011;1280;49.760;9.664;2023-05-10T06:17:59;4.43;;;2.17;;
2538;SDS011;1280;49.760;9.664;2023-05-10T06:20:37;4.17;;;2.33;;
2538;SDS011;1280;49.760;9.664;2023-05-10T06:23:14;4.40;;;2.20;;
2538;SDS011;1280;49.760;9.664;2023-05-10T06:25:54;4.77;;;2.37;;
2538;SDS011;1280;49.760;9.664;2023-05-10T06:28:32;4.60;;;2.20;;
2538;SDS011;1280;49.760;9.664;2023-05-10T06:31:14;4.90;;;2.57;;
2538;SDS011;1280;49.760;9.664;2023-05-10T06:33:48;4.30;;;1.90;;
2538;SDS011;1280;49.760;9.664;2023-05-10T06:36:22;5.93;;;2.00;;
2538;SDS011;1280;49.760;9.664;2023-05-10T06:38:57;5.60;;;2.20;;
2538;SDS011;1280;49.760;9.664;2023-05-10T06:41:36;6.60;;;2.20;;
2538;SDS011;1280;49.760;9.664;2023-05-10T06:44:11;5.77;;;2.00;;
2538;SDS011;1280;49.760;9.664;2023-05-10T06:46:49;6.13;;;2.50;;
2538;SDS011;1280;49.760;9.664;2023-05-10T06:49:27;6.40;;;2.83;;
2538;SDS011;1280;49.760;9.664;2023-05-10T06:52:03;5.27;;;2.67;;
2538;SDS011;1280;49.760;9.664;2023-05-10T06:54:41;5.33;;;2.90;;
2538;SDS011;1280;49.760;9.664;2023-05-10T06:57:17;6.00;;;2.83;;
2538;SDS011;1280;49.760;9.664;2023-05-10T06:59:58;7.13;;;2.77;;
2538;SDS011;1280;49.760;9.664;2023-05-10T07:02:36;5.23;;;3.00;;
2538;SDS011;1280;49.760;9.664;2023-05-10T07:05:05;6.90;;;2.90;;
2538;SDS011;1280;49.760;9.664;2023-05-10T07:07:47;7.70;;;2.93;;
2538;SDS011;1280;49.760;9.664;2023-05-10T07:10:24;8.23;;;2.60;;
2538;SDS011;1280;49.760;9.664;2023-05-10T07:12:54;5.13;;;2.63;;
2538;SDS011;1280;49.760;9.664;2023-05-10T07:15:28;4.80;;;2.40;;
2538;SDS011;1280;49.760;9.664;2023-05-10T07:18:08;7.10;;;3.40;;
2538;SDS011;1280;49.760;9.664;2023-05-10T07:20:45;6.97;;;3.00;;
2538;SDS011;1280;49.760;9.664;2023-05-10T07:23:18;4.67;;;2.30;;
2538;SDS011;1280;49.760;9.664;2023-05-10T07:25:50;5.20;;;2.73;;
2538;SDS011;1280;49.760;9.664;2023-05-10T07:28:23;11.20;;;3.50;;
2538;SDS011;1280;49.760;9.664;2023-05-10T07:30:58;6.20;;;2.80;;
2538;SDS011;1280;49.760;9.664;2023-05-10T07:33:45;6.43;;;2.70;;
2538;SDS011;1280;49.760;9.664;2023-05-10T07:36:19;6.20;;;2.43;;
2538;SDS011;1280;49.760;9.664;2023-05-10T07:38:50;5.10;;;2.53;;
2538;SDS011;1280;49.760;9.664;2023-05-10T07:41:29;6.73;;;2.83;;
2538;SDS011;1280;49.760;9.664;2023-05-10T07:44:07;6.87;;;3.10;;
2538;SDS011;1280;49.760;9.664;2023-05-10T07:46:46;5.50;;;2.40;;
2538;SDS011;1280;49.760;9.664;2023-05-10T07:49:37;7.00;;;2.33;;
2538;SDS011;1280;49.760;9.664;2023-05-10T07:52:13;6.20;;;2.90;;
2538;SDS011;1280;49.760;9.664;2023-05-10T07:54:48;10.00;;;2.50;;
2538;SDS011;1280;49.760;9.664;2023-05-10T07:57:24;6.67;;;2.80;;
2538;SDS011;1280;49.760;9.664;2023-05-10T07:59:54;7.50;;;2.37;;
2538;SDS011;1280;49.760;9.664;2023-05-10T08:02:26;4.87;;;2.37;;
2538;SDS011;1280;49.760;9.664;2023-05-10T08:05:00;5.13;;;2.30;;
2538;SDS011;1280;49.760;9.664;2023-05-10T08:07:30;5.30;;;2.17;;
2538;SDS011;1280;49.760;9.664;2023-05-10T08:10:10;8.10;;;2.70;;
2538;SDS011;1280;49.760;9.664;2023-05-10T08:12:41;6.23;;;2.57;;
2538;SDS011;1280;49.760;9.664;2023-05-10T08:15:20;5.30;;;2.50;;
2538;SDS011;1280;49.760;9.664;2023-05-10T08:17:55;6.77;;;2.67;;
2538;SDS011;1280;49.760;9.664;2023-05-10T08:20:38;5.13;;;2.20;;
2538;SDS011;1280;49.760;9.664;2023-05-10T08:23:06;8.00;;;2.20;;
2538;SDS011;1280;49.760;9.664;2023-05-10T08:25:35;5.83;;;2.10;;
2538;SDS011;1280;49.760;9.664;2023-05-10T08:28:21;5.63;;;2.30;;
2538;SDS011;1280;49.760;9.664;2023-05-10T08:30:51;7.57;;;2.60;;
2538;SDS011;1280;49.760;9.664;2023-05-10T08:33:26;7.27;;;2.90;;
2538;SDS011;1280;49.760;9.664;2023-05-10T08:36:03;8.40;;;2.83;;
2538;SDS011;1280;49.760;9.664;2023-05-10T08:38:37;5.50;;;2.70;;
2538;SDS011;1280;49.760;9.664;2023-05-10T08:41:18;10.10;;;2.87;;
2538;SDS011;1280;49.760;9.664;2023-05-10T08:43:53;5.20;;;2.53;;
2538;SDS011;1280;49.760;9.664;2023-05-10T08:46:29;13.13;;;3.50;;
2538;SDS011;1280;49.760;9.664;2023-05-10T08:49:01;5.00;;;2.57;;
2538;SDS011;1280;49.760;9.664;2023-05-10T08:51:51;6.00;;;3.13;;
2538;SDS011;1280;49.760;9.664;2023-05-10T08:54:29;5.80;;;2.37;;
2538;SDS011;1280;49.760;9.664;2023-05-10T08:57:04;7.07;;;3.07;;
2538;SDS011;1280;49.760;9.664;2023-05-10T08:59:46;6.10;;;3.10;;
2538;SDS011;1280;49.760;9.664;2023-05-10T09:02:27;5.83;;;3.33;;
2538;SDS011;1280;49.760;9.664;2023-05-10T09:05:08;5.77;;;2.60;;
2538;SDS011;1280;49.760;9.664;2023-05-10T09:07:51;5.40;;;2.63;;
2538;SDS011;1280;49.760;9.664;2023-05-10T09:10:27;5.03;;;2.70;;
2538;SDS011;1280;49.760;9.664;2023-05-10T09:13:12;5.53;;;2.70;;
2538;SDS011;1280;49.760;9.664;2023-05-10T09:15:47;5.07;;;2.47;;
2538;SDS011;1280;49.760;9.664;2023-05-10T09:18:33;4.87;;;2.43;;
2538;SDS011;1280;49.760;9.664;2023-05-10T09:21:08;6.77;;;2.60;;
2538;SDS011;1280;49.760;9.664;2023-05-10T09:23:53;5.50;;;2.67;;
2538;SDS011;1280;49.760;9.664;2023-05-10T09:26:25;5.67;;;2.50;;
2538;SDS011;1280;49.760;9.664;2023-05-10T09:28:59;5.63;;;2.43;;
2538;SDS011;1280;49.760;9.664;2023-05-10T09:31:43;4.53;;;2.43;;
2538;SDS011;1280;49.760;9.664;2023-05-10T09:34:28;5.33;;;2.57;;
2538;SDS011;1280;49.760;9.664;2023-05-10T09:37:04;4.80;;;2.27;;
2538;SDS011;1280;49.760;9.664;2023-05-10T09:39:38;5.43;;;2.67;;
2538;SDS011;1280;49.760;9.664;2023-05-10T09:42:12;7.03;;;2.43;;
2538;SDS011;1280;49.760;9.664;2023-05-10T09:44:51;5.40;;;2.40;;
2538;SDS011;1280;49.760;9.664;2023-05-10T09:47:24;7.10;;;2.50;;
2538;SDS011;1280;49.760;9.664;2023-05-10T09:49:55;8.00;;;2.60;;
2538;SDS011;1280;49.760;9.664;2023-05-10T09:52:49;5.37;;;2.20;;
2538;SDS011;1280;49.760;9.664;2023-05-10T09:55:23;7.43;;;1.83;;
2538;SDS011;1280;49.760;9.664;2023-05-10T09:57:58;4.50;;;1.70;;
2538;SDS011;1280;49.760;9.664;2023-05-10T10:00:34;5.23;;;1.83;;
2538;SDS011;1280;49.760;9.664;2023-05-10T10:03:06;4.80;;;1.83;;
2538;SDS011;1280;49.760;9.664;2023-05-10T10:05:46;5.30;;;2.40;;
2538;SDS011;1280;49.760;9.664;2023-05-10T10:08:19;4.70;;;1.90;;
2538;SDS011;1280;49.760;9.664;2023-05-10T10:10:55;4.20;;;1.80;;
2538;SDS011;1280;49.760;9.664;2023-05-10T10:13:29;6.27;;;2.43;;
2538;SDS011;1280;49.760;9.664;2023-05-10T10:16:02;6.33;;;2.37;;
2538;SDS011;1280;49.760;9.664;2023-05-10T10:18:35;5.30;;;1.93;;
2538;SDS011;1280;49.760;9.664;2023-05-10T10:21:13;3.80;;;1.67;;
2538;SDS011;1280;49.760;9.664;2023-05-10T10:23:46;5.33;;;2.37;;
2538;SDS011;1280;49.760;9.664;2023-05-10T10:26:21;4.30;;;1.80;;
2538;SDS011;1280;49.760;9.664;2023-05-10T10:29:00;5.43;;;2.03;;
2538;SDS011;1280;49.760;9.664;2023-05-10T10:31:54;4.17;;;2.00;;
2538;SDS011;1280;49.760;9.664;2023-05-10T10:34:35;5.70;;;1.80;;
2538;SDS011;1280;49.760;9.664;2023-05-10T10:37:16;5.00;;;2.10;;
2538;SDS011;1280;49.760;9.664;2023-05-10T10:39:53;5.83;;;1.73;;
2538;SDS011;1280;49.760;9.664;2023-05-10T10:45:24;8.73;;;2.00;;
2538;SDS011;1280;49.760;9.664;2023-05-10T10:50:59;4.57;;;1.97;;
2538;SDS011;1280;49.760;9.664;2023-05-10T10:53:31;5.50;;;2.80;;
2538;SDS011;1280;49.760;9.664;2023-05-10T10:56:10;5.33;;;2.20;;
2538;SDS011;1280;49.760;9.664;2023-05-10T10:59:04;5.07;;;2.13;;
2538;SDS011;1280;49.760;9.664;2023-05-10T11:01:33;6.90;;;2.00;;
2538;SDS011;1280;49.760;9.664;2023-05-10T11:04:20;4.90;;;1.80;;
2538;SDS011;1280;49.760;9.664;2023-05-10T11:06:51;4.20;;;1.80;;
2538;SDS011;1280;49.760;9.664;2023-05-10T11:09:54;5.00;;;2.00;;
2538;SDS011;1280;49.760;9.664;2023-05-10T11:12:27;4.50;;;1.60;;
2538;SDS011;1280;49.760;9.664;2023-05-10T11:15:09;5.10;;;2.10;;
2538;SDS011;1280;49.760;9.664;2023-05-10T11:17:40;5.27;;;2.23;;
2538;SDS011;1280;49.760;9.664;2023-05-10T11:20:19;5.83;;;2.10;;
2538;SDS011;1280;49.760;9.664;2023-05-10T11:23:10;5.30;;;1.50;;
2538;SDS011;1280;49.760;9.664;2023-05-10T11:25:43;4.60;;;1.63;;
2538;SDS011;1280;49.760;9.664;2023-05-10T11:28:20;4.80;;;1.37;;
2538;SDS011;1280;49.760;9.664;2023-05-10T11:31:09;4.50;;;1.60;;
2538;SDS011;1280;49.760;9.664;2023-05-10T11:33:44;4.13;;;1.80;;
2538;SDS011;1280;49.760;9.664;2023-05-10T11:36:18;6.23;;;1.53;;
2538;SDS011;1280;49.760;9.664;2023-05-10T11:38:55;6.30;;;1.90;;
2538;SDS011;1280;49.760;9.664;2023-05-10T11:41:29;4.80;;;2.10;;
2538;SDS011;1280;49.760;9.664;2023-05-10T11:44:02;4.50;;;1.47;;
2538;SDS011;1280;49.760;9.664;2023-05-10T11:46:52;5.70;;;2.47;;
2538;SDS011;1280;49.760;9.664;2023-05-10T11:50:23;3.90;;;1.30;;
2538;SDS011;1280;49.760;9.664;2023-05-10T11:53:19;5.43;;;1.60;;
2538;SDS011;1280;49.760;9.664;2023-05-10T11:56:08;5.27;;;1.50;;
2538;SDS011;1280;49.760;9.664;2023-05-10T11:59:09;4.60;;;1.47;;
2538;SDS011;1280;49.760;9.664;2023-05-10T12:02:06;7.10;;;1.33;;
2538;SDS011;1280;49.760;9.664;2023-05-10T12:04:38;4.73;;;2.00;;
2538;SDS011;1280;49.760;9.664;2023-05-10T12:07:13;4.10;;;1.80;;
2538;SDS011;1280;49.760;9.664;2023-05-10T12:10:05;4.40;;;1.93;;
2538;SDS011;1280;49.760;9.664;2023-05-10T12:12:42;4.20;;;1.60;;
2538;SDS011;1280;49.760;9.664;2023-05-10T12:15:17;4.47;;;1.87;;
2538;SDS011;1280;49.760;9.664;2023-05-10T12:17:54;5.17;;;1.87;;
2538;SDS011;1280;49.760;9.664;2023-05-10T12:20:28;5.60;;;1.60;;
2538;SDS011;1280;49.760;9.664;2023-05-10T12:22:57;4.70;;;2.30;;
2538;SDS011;1280;49.760;9.664;2023-05-10T12:25:34;8.57;;;2.30;;
2538;SDS011;1280;49.760;9.664;2023-05-10T12:28:08;5.67;;;2.50;;
2538;SDS011;1280;49.760;9.664;2023-05-10T12:30:47;4.97;;;2.67;;
2538;SDS011;1280;49.760;9.664;2023-05-10T12:33:26;9.93;;;2.43;;
2538;SDS011;1280;49.760;9.664;2023-05-10T12:36:08;5.70;;;1.80;;
2538;SDS011;1280;49.760;9.664;2023-05-10T12:38:44;5.40;;;2.13;;
2538;SDS011;1280;49.760;9.664;2023-05-10T12:41:18;5.90;;;1.93;;
2538;SDS011;1280;49.760;9.664;2023-05-10T12:43:51;6.40;;;2.10;;
2538;SDS011;1280;49.760;9.664;2023-05-10T12:46:26;10.73;;;2.03;;
2538;SDS011;1280;49.760;9.664;2023-05-10T12:49:01;7.17;;;1.90;;
2538;SDS011;1280;49.760;9.664;2023-05-10T12:51:40;5.37;;;2.40;;
2538;SDS011;1280;49.760;9.664;2023-05-10T12:54:17;4.63;;;1.93;;
2538;SDS011;1280;49.760;9.664;2023-05-10T12:56:53;5.70;;;1.73;;
2538;SDS011;1280;49.760;9.664;2023-05-10T12:59:24;4.80;;;2.00;;
2538;SDS011;1280;49.760;9.664;2023-05-10T13:02:03;14.53;;;2.43;;
2538;SDS011;1280;49.760;9.664;2023-05-10T13:04:42;9.47;;;1.83;;
2538;SDS011;1280;49.760;9.664;2023-05-10T13:07:13;7.13;;;2.40;;
2538;SDS011;1280;49.760;9.664;2023-05-10T13:09:47;3.83;;;1.67;;
2538;SDS011;1280;49.760;9.664;2023-05-10T13:12:28;4.50;;;1.80;;
2538;SDS011;1280;49.760;9.664;2023-05-10T13:15:09;7.97;;;2.27;;
2538;SDS011;1280;49.760;9.664;2023-05-10T13:17:44;6.77;;;2.13;;
2538;SDS011;1280;49.760;9.664;2023-05-10T13:20:19;5.00;;;2.03;;
2538;SDS011;1280;49.760;9.664;2023-05-10T13:22:49;4.20;;;1.97;;
2538;SDS011;1280;49.760;9.664;2023-05-10T13:25:21;8.13;;;2.20;;
2538;SDS011;1280;49.760;9.664;2023-05-10T13:27:53;4.73;;;1.80;;
2538;SDS011;1280;49.760;9.664;2023-05-10T13:30:25;4.10;;;2.00;;
2538;SDS011;1280;49.760;9.664;2023-05-10T13:33:03;8.63;;;2.07;;
2538;SDS011;1280;49.760;9.664;2023-05-10T13:35:38;5.97;;;1.73;;
2538;SDS011;1280;49.760;9.664;2023-05-10T13:38:13;4.77;;;1.70;;
2538;SDS011;1280;49.760;9.664;2023-05-10T13:40:47;5.97;;;2.37;;
2538;SDS011;1280;49.760;9.664;2023-05-10T13:43:28;5.60;;;2.13;;
2538;SDS011;1280;49.760;9.664;2023-05-10T13:46:08;5.20;;;1.97;;
2538;SDS011;1280;49.760;9.664;2023-05-10T13:48:40;4.30;;;1.70;;
2538;SDS011;1280;49.760;9.664;2023-05-10T13:51:20;4.90;;;1.93;;
2538;SDS011;1280;49.760;9.664;2023-05-10T13:53:52;5.50;;;2.17;;
2538;SDS011;1280;49.760;9.664;2023-05-10T13:56:31;9.90;;;2.07;;
2538;SDS011;1280;49.760;9.664;2023-05-10T13:59:03;5.70;;;2.10;;
2538;SDS011;1280;49.760;9.664;2023-05-10T14:01:36;5.00;;;2.30;;
2538;SDS011;1280;49.760;9.664;2023-05-10T14:04:12;4.73;;;2.33;;
2538;SDS011;1280;49.760;9.664;2023-05-10T14:06:55;4.43;;;1.83;;
2538;SDS011;1280;49.760;9.664;2023-05-10T14:09:34;8.10;;;2.47;;
2538;SDS011;1280;49.760;9.664;2023-05-10T14:12:05;8.10;;;2.97;;
2538;SDS011;1280;49.760;9.664;2023-05-10T14:14:39;4.73;;;2.00;;
2538;SDS011;1280;49.760;9.664;2023-05-10T14:17:22;6.90;;;2.40;;
2538;SDS011;1280;49.760;9.664;2023-05-10T14:19:55;4.47;;;2.27;;
2538;SDS011;1280;49.760;9.664;2023-05-10T14:22:35;5.77;;;2.00;;
2538;SDS011;1280;49.760;9.664;2023-05-10T14:25:05;6.80;;;2.60;;
2538;SDS011;1280;49.760;9.664;2023-05-10T14:27:35;4.30;;;1.83;;
2538;SDS011;1280;49.760;9.664;2023-05-10T14:30:09;4.20;;;2.20;;
2538;SDS011;1280;49.760;9.664;2023-05-10T14:32:39;5.63;;;2.20;;
2538;SDS011;1280;49.760;9.664;2023-05-10T14:35:13;6.73;;;2.43;;
2538;SDS011;1280;49.760;9.664;2023-05-10T14:37:50;4.67;;;2.07;;
2538;SDS011;1280;49.760;9.664;2023-05-10T14:40:19;4.80;;;2.30;;
2538;SDS011;1280;49.760;9.664;2023-05-10T14:42:51;5.90;;;2.23;;
2538;SDS011;1280;49.760;9.664;2023-05-10T14:45:30;6.07;;;2.00;;
2538;SDS011;1280;49.760;9.664;2023-05-10T14:48:09;5.60;;;2.17;;
2538;SDS011;1280;49.760;9.664;2023-05-10T14:50:44;5.30;;;2.30;;
2538;SDS011;1280;49.760;9.664;2023-05-10T14:53:26;5.23;;;2.23;;
2538;SDS011;1280;49.760;9.664;2023-05-10T14:55:55;9.30;;;2.07;;
2538;SDS011;1280;49.760;9.664;2023-05-10T14:58:36;7.17;;;2.10;;
2538;SDS011;1280;49.760;9.664;2023-05-10T15:01:08;5.70;;;2.20;;
2538;SDS011;1280;49.760;9.664;2023-05-10T15:03:45;5.50;;;2.07;;
2538;SDS011;1280;49.760;9.664;2023-05-10T15:06:29;4.90;;;2.17;;
2538;SDS011;1280;49.760;9.664;2023-05-10T15:09:08;5.10;;;2.00;;
2538;SDS011;1280;49.760;9.664;2023-05-10T15:11:41;7.17;;;2.67;;
2538;SDS011;1280;49.760;9.664;2023-05-10T15:14:15;6.27;;;1.93;;
2538;SDS011;1280;49.760;9.664;2023-05-10T15:16:46;3.93;;;1.80;;
2538;SDS011;1280;49.760;9.664;2023-05-10T15:19:24;3.90;;;1.93;;
2538;SDS011;1280;49.760;9.664;2023-05-10T15:21:58;5.13;;;1.87;;
2538;SDS011;1280;49.760;9.664;2023-05-10T15:24:40;6.87;;;1.90;;
2538;SDS011;1280;49.760;9.664;2023-05-10T15:27:15;9.73;;;2.20;;
2538;SDS011;1280;49.760;9.664;2023-05-10T15:29:47;4.93;;;2.00;;
2538;SDS011;1280;49.760;9.664;2023-05-10T15:32:26;5.13;;;2.03;;
2538;SDS011;1280;49.760;9.664;2023-05-10T15:34:58;9.60;;;2.93;;
2538;SDS011;1280;49.760;9.664;2023-05-10T15:37:35;4.60;;;1.93;;
2538;SDS011;1280;49.760;9.664;2023-05-10T15:40:14;4.23;;;1.83;;
2538;SDS011;1280;49.760;9.664;2023-05-10T15:42:46;5.90;;;1.73;;
2538;SDS011;1280;49.760;9.664;2023-05-10T15:45:20;5.73;;;2.10;;
2538;SDS011;1280;49.760;9.664;2023-05-10T15:47:51;4.90;;;2.10;;
2538;SDS011;1280;49.760;9.664;2023-05-10T15:50:27;5.00;;;2.23;;
2538;SDS011;1280;49.760;9.664;2023-05-10T15:53:00;5.37;;;2.40;;
2538;SDS011;1280;49.760;9.664;2023-05-10T15:55:35;5.63;;;2.00;;
2538;SDS011;1280;49.760;9.664;2023-05-10T15:58:13;6.70;;;2.33;;
2538;SDS011;1280;49.760;9.664;2023-05-10T16:00:42;4.70;;;2.00;;
2538;SDS011;1280;49.760;9.664;2023-05-10T16:03:13;6.57;;;1.70;;
2538;SDS011;1280;49.760;9.664;2023-05-10T16:05:47;4.53;;;1.70;;
2538;SDS011;1280;49.760;9.664;2023-05-10T16:08:24;4.80;;;1.80;;
2538;SDS011;1280;49.760;9.664;2023-05-10T16:10:56;4.90;;;2.00;;
2538;SDS011;1280;49.760;9.664;2023-05-10T16:13:32;5.03;;;1.80;;
2538;SDS011;1280;49.760;9.664;2023-05-10T16:16:01;5.40;;;1.80;;
2538;SDS011;1280;49.760;9.664;2023-05-10T16:18:41;6.87;;;1.40;;
2538;SDS011;1280;49.760;9.664;2023-05-10T16:21:18;7.80;;;1.70;;
2538;SDS011;1280;49.760;9.664;2023-05-10T16:23:52;4.73;;;1.30;;
2538;SDS011;1280;49.760;9.664;2023-05-10T16:26:43;8.60;;;1.67;;
2538;SDS011;1280;49.760;9.664;2023-05-10T16:29:16;5.70;;;1.77;;